Baoding, China
Current Conditions -  °F | °C
As of 11:00 PM on Monday 24 Nov 2014 (Local Time) from ZBSJ Reporting Station
Haze Haze  
Wind Chill: 23°   Ceiling: Unl
Heat Index: 28°   Visibility: 1.1mi
Dew Point: 27°   Wind: 4mph
Humidity: 93%   Direction: 320°NW
Pressure: 30.27"   Gusts: NA
Location:  38.87°N, 115.48°E
Report Text: ZBSJ 241500Z 32002MPS 1800 BR NSC M02/M03 Q1025 NOSIG
Loading
Personal Weather Stations






























Interactive Weather Map New forecast layout! Learn more

10-Day Weather Forecast

Advertisements
Track Severe Weather on mobile